Time;durP1;ratioP1;P1;durP2;ratioP2;P2;SDS_P1;SDS_P2;PMS_P1;PMS_P2;Temp;Humidity;BMP_temperature;BMP_pressure;BME280_temperature;BME280_humidity;BME280_pressure;Samples;Min_cycle;Max_cycle;Signal;HPM_P1;HPM_P2
2023/06/23 00:01:17;;;;;;;24.83;13.95;;;;;;;14.11;100.00;101830.00;5084596;28;20108;-72
2023/06/23 00:03:45;;;;;;;22.27;13.75;;;;;;;14.07;100.00;101828.34;5080504;28;20478;-72
2023/06/23 00:06:11;;;;;;;21.98;13.23;;;;;;;14.03;100.00;101831.94;5084014;28;20024;-72
2023/06/23 00:08:38;;;;;;;21.45;14.27;;;;;;;14.03;100.00;101832.81;5082032;28;20035;-72
2023/06/23 00:11:03;;;;;;;19.80;13.68;;;;;;;13.97;100.00;101837.31;5075271;28;20016;-72
2023/06/23 00:13:29;;;;;;;20.73;13.85;;;;;;;13.88;100.00;101821.78;5085938;28;20444;-72
2023/06/23 00:15:54;;;;;;;20.52;14.18;;;;;;;13.97;100.00;101837.31;5085052;28;20029;-73
2023/06/23 00:18:22;;;;;;;22.10;14.73;;;;;;;13.98;100.00;101844.28;5087278;28;20051;-72
2023/06/23 00:20:48;;;;;;;24.15;14.82;;;;;;;13.95;100.00;101842.59;5084621;28;20085;-72
2023/06/23 00:23:13;;;;;;;26.10;15.52;;;;;;;13.94;100.00;101851.34;5082738;28;20036;-72
2023/06/23 00:25:39;;;;;;;28.38;15.73;;;;;;;13.94;100.00;101850.50;5086709;28;20097;-72
2023/06/23 00:28:04;;;;;;;25.42;14.65;;;;;;;13.85;100.00;101848.06;5085912;28;20024;-72
2023/06/23 00:30:30;;;;;;;26.27;16.13;;;;;;;13.84;100.00;101847.19;5086302;28;20561;-72
2023/06/23 00:32:55;;;;;;;22.80;15.80;;;;;;;13.88;100.00;101854.09;5086787;28;20030;-72
2023/06/23 00:35:21;;;;;;;26.83;16.20;;;;;;;13.86;100.00;101860.25;5086337;28;20062;-72
2023/06/23 00:37:47;;;;;;;30.58;17.67;;;;;;;13.85;100.00;101863.78;5086652;28;20024;-72
2023/06/23 00:40:12;;;;;;;26.17;16.08;;;;;;;13.86;100.00;101871.59;5083708;28;20067;-72
2023/06/23 00:42:52;;;;;;;32.70;18.83;;;;;;;13.82;100.00;101870.81;5085840;28;20031;-72
2023/06/23 00:45:18;;;;;;;25.08;16.60;;;;;;;13.85;100.00;101863.78;5083791;28;20380;-72
2023/06/23 00:47:44;;;;;;;34.63;18.05;;;;;;;13.79;100.00;101875.25;5086431;28;20027;-72
2023/06/23 00:50:18;;;;;;;31.13;17.92;;;;;;;13.81;100.00;101873.47;5083399;28;20081;-72
2023/06/23 00:52:51;;;;;;;27.92;17.85;;;;;;;13.79;100.00;101880.50;5074459;28;20027;-73
2023/06/23 00:55:24;;;;;;;33.33;18.48;;;;;;;13.78;100.00;101882.25;5084133;28;20414;-73
2023/06/23 00:57:52;;;;;;;32.28;19.27;;;;;;;13.77;100.00;101884.94;5070701;28;20065;-73
2023/06/23 01:00:19;;;;;;;33.35;19.50;;;;;;;13.76;100.00;101886.66;5084967;28;20024;-72
2023/06/23 01:02:49;;;;;;;34.28;19.77;;;;;;;13.73;100.00;101899.84;5084829;28;20038;-72
2023/06/23 01:05:25;;;;;;;36.63;19.75;;;;;;;13.76;100.00;101906.75;5086056;28;20051;-72
2023/06/23 01:08:09;;;;;;;35.97;20.35;;;;;;;13.75;100.00;101911.16;5085864;28;20032;-72
2023/06/23 01:10:45;;;;;;;;;;;;;;;13.72;100.00;101916.44;5083371;28;20460;-72
2023/06/23 01:13:58;;;;;;;40.60;22.20;;;;;;;13.72;100.00;101920.81;5086235;28;19926;-72
2023/06/23 01:16:31;;;;;;;34.67;20.52;;;;;;;13.69;100.00;101920.88;5082603;28;20091;-72
2023/06/23 01:19:15;;;;;;;36.25;23.17;;;;;;;13.70;100.00;101918.25;5082750;28;20043;-72
2023/06/23 01:22:02;;;;;;;39.38;23.38;;;;;;;13.70;100.00;101917.34;5077762;28;20064;-72
2023/06/23 01:24:53;;;;;;;40.47;23.98;;;;;;;13.69;100.00;101910.41;5075847;28;20033;-72
2023/06/23 01:27:33;;;;;;;46.63;25.95;;;;;;;13.70;100.00;101910.38;5073107;28;20514;-72
2023/06/23 01:30:02;;;;;;;49.30;26.40;;;;;;;13.76;100.00;101920.72;5087090;28;20443;-72
2023/06/23 01:32:34;;;;;;;55.92;29.20;;;;;;;13.71;100.00;101919.97;5078503;28;20020;-72
2023/06/23 01:35:05;;;;;;;48.65;28.67;;;;;;;13.72;100.00;101924.31;5083153;28;20051;-72
2023/06/23 01:37:35;;;;;;;55.08;29.92;;;;;;;13.75;100.00;101928.63;5081974;28;20040;-72
2023/06/23 01:40:13;;;;;;;53.63;29.17;;;;;;;13.73;100.00;101931.28;5070648;28;20027;-72
2023/06/23 01:42:42;;;;;;;51.67;30.67;;;;;;;13.72;100.00;101929.53;5074786;28;20039;-72
2023/06/23 01:45:11;;;;;;;55.10;30.08;;;;;;;13.70;100.00;101925.22;5082124;28;20557;-72
2023/06/23 01:47:40;;;;;;;61.38;32.55;;;;;;;13.71;100.00;101929.59;5080021;28;20052;-72
2023/06/23 01:50:07;;;;;;;54.63;31.38;;;;;;;13.66;100.00;101931.41;5084113;28;20067;-72
2023/06/23 01:52:37;;;;;;;57.83;32.03;;;;;;;13.72;100.00;101941.78;5083776;28;20051;-73
2023/06/23 01:55:05;;;;;;;67.28;33.47;;;;;;;13.68;100.00;101941.00;5084832;28;20032;-72
2023/06/23 01:57:33;;;;;;;59.28;32.67;;;;;;;13.71;100.00;101940.06;5079514;28;20025;-72
2023/06/23 02:00:00;;;;;;;60.80;33.90;;;;;;;13.66;100.00;101947.16;5084495;28;20103;-72
2023/06/23 02:02:27;;;;;;;63.85;34.67;;;;;;;13.65;100.00;101954.16;5082675;28;20059;-72
2023/06/23 02:04:55;;;;;;;62.33;34.10;;;;;;;13.65;100.00;101948.91;5078070;28;20114;-72
2023/06/23 02:07:22;;;;;;;61.25;33.05;;;;;;;13.61;100.00;101955.09;5083993;28;20036;-72
2023/06/23 02:09:49;;;;;;;58.63;33.70;;;;;;;13.56;100.00;101960.41;5083964;28;20032;-72
2023/06/23 02:12:16;;;;;;;60.35;33.17;;;;;;;13.49;100.00;101955.31;5086425;28;20387;-72
2023/06/23 02:14:44;;;;;;;63.78;34.55;;;;;;;13.56;100.00;101968.28;5081321;28;20081;-72
2023/06/23 02:17:10;;;;;;;60.78;32.72;;;;;;;13.54;100.00;101974.44;5087728;28;20029;-72
2023/06/23 02:19:42;;;;;;;70.57;36.00;;;;;;;13.51;100.00;101971.88;5081019;28;20025;-72
2023/06/23 02:22:14;;;;;;;62.97;34.38;;;;;;;13.46;100.00;101971.94;5073602;28;20042;-72
2023/06/23 02:24:40;;;;;;;62.72;34.20;;;;;;;13.45;100.00;101980.72;5081143;28;20024;-73
2023/06/23 02:27:07;;;;;;;64.45;35.08;;;;;;;13.47;100.00;101984.19;5088441;28;20032;-72
2023/06/23 02:29:37;;;;;;;68.70;37.03;;;;;;;13.42;100.00;101980.75;5080629;28;20088;-72
2023/06/23 02:32:03;;;;;;;69.65;35.17;;;;;;;13.38;100.00;101986.09;5089339;28;20076;-72
2023/06/23 02:34:29;;;;;;;63.22;34.97;;;;;;;13.41;100.00;101993.91;5079972;28;20029;-72
2023/06/23 02:37:03;;;;;;;63.50;35.70;;;;;;;13.38;100.00;101996.56;5080945;28;20067;-72
2023/06/23 02:39:33;;;;;;;61.50;34.40;;;;;;;13.38;100.00;102004.41;5073902;28;20024;-73
2023/06/23 02:42:00;;;;;;;63.28;35.28;;;;;;;13.37;100.00;102014.00;5080572;28;20051;-72
2023/06/23 02:44:37;;;;;;;70.15;36.25;;;;;;;13.33;100.00;102018.44;5087257;28;20047;-72
2023/06/23 02:47:08;;;;;;;67.32;36.67;;;;;;;13.32;100.00;102015.84;5077165;28;20369;-72
2023/06/23 02:49:37;;;;;;;72.65;37.45;;;;;;;13.32;100.00;102021.94;5086581;28;20490;-72
2023/06/23 02:52:05;;;;;;;73.97;37.92;;;;;;;13.32;100.00;102014.09;5081170;28;20032;-73
2023/06/23 02:54:35;;;;;;;78.28;38.17;;;;;;;13.31;100.00;102024.59;5087330;28;20028;-72
2023/06/23 02:57:02;;;;;;;70.50;38.00;;;;;;;13.25;100.00;102025.56;5079786;28;20028;-72
2023/06/23 02:59:28;;;;;;;72.13;38.53;;;;;;;13.26;100.00;102031.66;5085207;28;20028;-72
2023/06/23 03:01:57;;;;;;;77.35;39.90;;;;;;;13.24;100.00;102039.56;5080808;28;20036;-72
2023/06/23 03:04:22;;;;;;;72.22;39.03;;;;;;;13.24;100.00;102031.69;5086253;28;20483;-72
2023/06/23 03:06:48;;;;;;;73.90;41.78;;;;;;;13.23;100.00;102031.66;5081308;28;20060;-72
2023/06/23 03:09:13;;;;;;;68.05;38.50;;;;;;;13.21;100.00;102036.94;5084780;28;20363;-72
2023/06/23 03:11:39;;;;;;;75.32;39.20;;;;;;;13.19;100.00;102041.34;5083125;28;20020;-73
2023/06/23 03:14:05;;;;;;;73.22;40.17;;;;;;;13.12;100.00;102024.00;5083520;28;20024;-72
2023/06/23 03:16:35;;;;;;;75.32;39.05;;;;;;;13.17;100.00;102037.84;5082979;28;20020;-72
2023/06/23 03:19:16;;;;;;;77.60;40.78;;;;;;;13.12;100.00;102024.00;5082748;28;20157;-72
2023/06/23 03:21:45;;;;;;;72.65;39.67;;;;;;;13.15;100.00;102033.56;5083670;28;20042;-72
2023/06/23 03:24:13;;;;;;;71.85;40.88;;;;;;;13.10;100.00;102034.47;5080863;28;20019;-72
2023/06/23 03:26:45;;;;;;;74.18;39.85;;;;;;;13.13;100.00;102041.41;5083406;28;20028;-72
2023/06/23 03:29:12;;;;;;;70.47;40.30;;;;;;;13.11;100.00;102037.94;5082691;28;20054;-73
2023/06/23 03:31:41;;;;;;;81.07;42.78;;;;;;;13.12;100.00;102044.94;5083039;28;20031;-72
2023/06/23 03:34:07;;;;;;;78.88;41.20;;;;;;;13.12;100.00;102037.09;5082776;28;20055;-72
2023/06/23 03:36:36;;;;;;;80.68;42.28;;;;;;;13.15;100.00;102044.91;5083681;28;20047;-73
2023/06/23 03:39:09;;;;;;;80.30;42.58;;;;;;;13.16;100.00;102048.38;5080646;28;20024;-72
2023/06/23 03:41:44;;;;;;;81.28;42.17;;;;;;;13.15;100.00;102044.91;5080049;28;20478;-72
2023/06/23 03:44:23;;;;;;;81.18;43.47;;;;;;;13.15;100.00;102042.28;5086981;28;20094;-72
2023/06/23 03:46:56;;;;;;;89.03;43.78;;;;;;;13.15;100.00;102042.28;5081143;28;20025;-72
2023/06/23 03:49:27;;;;;;;85.82;44.53;;;;;;;13.10;100.00;102038.84;5091066;28;20032;-72
2023/06/23 03:51:55;;;;;;;84.88;43.13;;;;;;;13.10;100.00;102044.94;5083720;28;20024;-72
2023/06/23 03:54:21;;;;;;;82.93;42.67;;;;;;;13.08;100.00;102035.41;5091112;28;20027;-72
2023/06/23 03:56:48;;;;;;;83.60;43.10;;;;;;;13.12;100.00;102044.94;5083805;28;20136;-72
2023/06/23 03:59:16;;;;;;;88.68;43.58;;;;;;;13.17;100.00;102050.94;5086952;28;20024;-72
2023/06/23 04:01:43;;;;;;;89.50;43.88;;;;;;;13.21;100.00;102055.28;5084344;28;20043;-72
2023/06/23 04:04:10;;;;;;;88.72;43.78;;;;;;;13.21;100.00;102068.38;5088949;28;20483;-72
2023/06/23 04:06:37;;;;;;;88.55;43.20;;;;;;;13.20;100.00;102064.00;5085293;28;20028;-72
2023/06/23 04:09:04;;;;;;;86.20;43.17;;;;;;;13.29;100.00;102063.91;5087597;28;20043;-72
2023/06/23 04:11:30;;;;;;;86.20;43.65;;;;;;;13.26;100.00;102063.09;5087179;28;20085;-73
2023/06/23 04:13:57;;;;;;;90.88;45.03;;;;;;;13.31;100.00;102071.75;5084989;28;20024;-72
2023/06/23 04:16:23;;;;;;;87.38;44.65;;;;;;;13.38;100.00;102072.53;5086996;28;20028;-72
2023/06/23 04:18:51;;;;;;;84.95;44.05;;;;;;;13.34;100.00;102076.91;5085956;28;20035;-72
2023/06/23 04:21:18;;;;;;;86.20;44.05;;;;;;;13.42;100.00;102084.69;5086301;28;20020;-72
2023/06/23 04:23:45;;;;;;;88.63;44.20;;;;;;;13.44;100.00;102080.25;5085886;28;20032;-73
2023/06/23 04:26:12;;;;;;;84.90;44.80;;;;;;;13.47;100.00;102080.22;5075586;28;20024;-72
2023/06/23 04:28:41;;;;;;;88.40;45.42;;;;;;;13.46;100.00;102086.34;5085839;28;20169;-73
2023/06/23 04:31:08;;;;;;;90.15;44.13;;;;;;;13.50;100.00;102098.50;5086152;28;20154;-72
2023/06/23 04:33:35;;;;;;;84.20;43.25;;;;;;;13.50;100.00;102093.25;5085940;28;20024;-72
2023/06/23 04:36:13;;;;;;;83.05;44.10;;;;;;;13.53;100.00;102101.06;5086115;28;20048;-72
2023/06/23 04:38:43;;;;;;;89.93;43.55;;;;;;;13.59;100.00;102093.13;5084214;28;20028;-72
2023/06/23 04:41:19;;;;;;;86.32;44.42;;;;;;;13.65;100.00;102102.66;5084512;28;20492;-72
2023/06/23 04:43:49;;;;;;;86.88;44.38;;;;;;;13.68;100.00;102106.09;5086944;28;20039;-72
2023/06/23 04:46:42;;;;;;;88.68;44.47;;;;;;;13.76;100.00;102104.19;5085424;28;20491;-72
2023/06/23 04:49:09;;;;;;;97.50;46.67;;;;;;;13.82;100.00;102101.47;5087488;28;20039;-72
2023/06/23 04:51:40;;;;;;;100.97;48.17;;;;;;;13.87;100.00;102095.31;5082975;28;20048;-72
2023/06/23 04:54:20;;;;;;;102.25;48.03;;;;;;;13.92;100.00;102096.06;5082237;28;20035;-73
2023/06/23 04:56:49;;;;;;;102.35;47.70;;;;;;;13.97;100.00;102099.50;5078884;28;20036;-73
2023/06/23 04:59:20;;;;;;;109.20;48.40;;;;;;;14.04;100.00;102109.84;5086816;28;20016;-73
2023/06/23 05:01:46;;;;;;;102.28;48.80;;;;;;;14.05;100.00;102103.69;5077636;28;20487;-72
2023/06/23 05:04:13;;;;;;;100.47;48.58;;;;;;;14.13;100.00;102121.94;5088322;28;20078;-72
2023/06/23 05:06:41;;;;;;;116.28;52.25;;;;;;;14.20;100.00;102125.31;5084273;28;20031;-73
2023/06/23 05:09:08;;;;;;;110.40;51.90;;;;;;;14.24;100.00;102125.22;5086211;28;20116;-73
2023/06/23 05:11:35;;;;;;;118.50;53.75;;;;;;;14.29;100.00;102139.13;5085539;28;20028;-72
2023/06/23 05:14:02;;;;;;;128.15;53.65;;;;;;;14.35;100.00;102140.75;5085414;28;20349;-73
2023/06/23 05:16:27;;;;;;;125.05;54.00;;;;;;;14.39;100.00;102134.56;5084790;28;20410;-73
2023/06/23 05:18:53;;;;;;;119.43;53.90;;;;;;;14.46;100.00;102143.19;5085017;28;20090;-73
2023/06/23 05:21:23;;;;;;;126.60;57.08;;;;;;;14.54;100.00;102141.28;5085761;28;20544;-73
2023/06/23 05:23:51;;;;;;;134.68;57.17;;;;;;;14.59;100.00;102142.09;5083854;28;20032;-72
2023/06/23 05:26:16;;;;;;;136.45;57.55;;;;;;;14.63;100.00;102137.63;5085858;28;20028;-72
2023/06/23 05:28:43;;;;;;;136.73;58.22;;;;;;;14.71;100.00;102144.47;5085233;28;20056;-73
2023/06/23 05:31:11;;;;;;;145.65;61.08;;;;;;;14.74;100.00;102136.50;5084543;28;20024;-73
2023/06/23 05:33:39;;;;;;;151.10;60.03;;;;;;;14.84;100.00;102152.09;5085322;28;20471;-72
2023/06/23 05:36:11;;;;;;;143.32;61.38;;;;;;;14.85;100.00;102154.69;5085224;28;20085;-72
2023/06/23 05:38:39;;;;;;;149.35;61.45;;;;;;;14.94;100.00;102156.25;5082864;28;20028;-72
2023/06/23 05:41:04;;;;;;;148.93;63.22;;;;;;;14.95;100.00;102155.38;5085386;28;20031;-72
2023/06/23 05:43:30;;;;;;;149.13;62.72;;;;;;;15.05;100.00;102159.53;5083710;28;20028;-72
2023/06/23 05:45:57;;;;;;;145.55;63.28;;;;;;;15.09;100.00;102163.81;5084550;28;20028;-73
2023/06/23 05:48:39;;;;;;;158.50;64.57;;;;;;;15.14;100.00;102163.69;5083157;28;20025;-72
2023/06/23 05:51:11;;;;;;;153.60;63.13;;;;;;;15.18;100.00;102168.88;5084812;28;20039;-72
2023/06/23 05:53:39;;;;;;;152.40;64.72;;;;;;;15.28;100.00;102166.91;5081986;28;20027;-72
2023/06/23 05:56:22;;;;;;;162.40;65.35;;;;;;;15.32;100.00;102167.69;5085340;28;20028;-72
2023/06/23 05:58:50;;;;;;;161.35;66.10;;;;;;;15.42;100.00;102169.22;5081502;28;20024;-72
2023/06/23 06:01:21;;;;;;;161.18;64.00;;;;;;;15.49;100.00;102178.69;5085369;28;20028;-72
2023/06/23 06:04:19;;;;;;;157.65;64.35;;;;;;;15.51;100.00;102179.53;5082103;28;20028;-72
2023/06/23 06:06:46;;;;;;;162.05;65.05;;;;;;;15.64;100.00;102180.97;5077550;28;20051;-72
2023/06/23 06:09:13;;;;;;;153.75;64.82;;;;;;;15.70;100.00;102171.25;5086048;28;20484;-72
2023/06/23 06:11:41;;;;;;;157.48;64.20;;;;;;;15.78;100.00;102191.19;5083157;28;20036;-72
2023/06/23 06:14:08;;;;;;;142.25;63.60;;;;;;;15.77;100.00;102189.47;5084368;28;20024;-72
2023/06/23 06:16:39;;;;;;;135.57;60.08;;;;;;;15.89;100.00;102193.56;5084233;28;20028;-72
2023/06/23 06:19:05;;;;;;;131.75;60.53;;;;;;;15.94;100.00;102196.97;5082352;28;20064;-72
2023/06/23 06:21:34;;;;;;;128.48;58.15;;;;;;;15.94;100.00;102196.97;5084521;28;20498;-72
2023/06/23 06:24:01;;;;;;;123.60;57.45;;;;;;;15.95;100.00;102197.81;5083849;28;20075;-72
2023/06/23 06:26:27;;;;;;;112.88;54.58;;;;;;;15.88;100.00;102186.59;5083675;28;20039;-72
2023/06/23 06:28:54;;;;;;;109.72;52.70;;;;;;;15.95;100.00;102193.41;5083773;28;20040;-73
2023/06/23 06:31:22;;;;;;;109.10;54.70;;;;;;;16.02;100.00;102200.28;5084717;28;20107;-72
2023/06/23 06:33:52;;;;;;;113.63;55.25;;;;;;;16.22;100.00;102201.53;5083884;28;20016;-72
2023/06/23 06:36:22;;;;;;;108.32;55.85;;;;;;;16.42;100.00;102203.66;5084434;28;20073;-72
2023/06/23 06:38:51;;;;;;;93.00;50.63;;;;;;;16.52;100.00;102211.28;5082301;28;20463;-72
2023/06/23 06:41:17;;;;;;;96.00;50.53;;;;;;;16.72;100.00;102217.78;5081371;28;20027;-73
2023/06/23 06:43:44;;;;;;;82.28;47.95;;;;;;;16.67;100.00;102204.72;5084895;28;20040;-73
2023/06/23 06:46:11;;;;;;;86.15;46.45;;;;;;;16.81;100.00;102209.66;5084048;28;20032;-72
2023/06/23 06:48:38;;;;;;;77.20;46.42;;;;;;;16.85;100.00;102216.56;5082337;28;20016;-73
2023/06/23 06:51:05;;;;;;;80.63;47.15;;;;;;;16.97;100.00;102223.22;5084463;28;20067;-72
2023/06/23 06:53:31;;;;;;;80.15;45.20;;;;;;;17.10;100.00;102221.97;5079756;28;20026;-73
2023/06/23 06:55:57;;;;;;;91.20;48.50;;;;;;;17.17;100.00;102220.06;5081862;28;20371;-73
2023/06/23 06:58:23;;;;;;;75.25;45.83;;;;;;;17.25;100.00;102224.16;5081436;28;20020;-73
2023/06/23 07:00:49;;;;;;;69.38;42.33;;;;;;;17.28;100.00;102237.25;5084519;28;20097;-72
2023/06/23 07:03:15;;;;;;;60.10;38.70;;;;;;;17.25;100.00;102228.59;5082999;28;20028;-73
2023/06/23 07:05:41;;;;;;;59.58;38.72;;;;;;;17.24;100.00;102232.13;5082819;28;20034;-72
2023/06/23 07:08:06;;;;;;;59.03;36.85;;;;;;;17.22;100.00;102236.59;5084059;28;20450;-73
2023/06/23 07:10:33;;;;;;;54.97;37.03;;;;;;;17.16;100.00;102234.97;5081687;28;20103;-72
2023/06/23 07:13:00;;;;;;;51.65;36.08;;;;;;;17.18;100.00;102245.50;5084101;28;20056;-72
2023/06/23 07:15:25;;;;;;;62.35;38.95;;;;;;;17.28;100.00;102247.81;5083377;28;20031;-72
2023/06/23 07:17:51;;;;;;;62.67;40.75;;;;;;;17.29;100.00;102252.16;5082463;28;20032;-72
2023/06/23 07:20:16;;;;;;;60.92;38.95;;;;;;;17.35;100.00;102251.13;5086380;28;20029;-73
2023/06/23 07:22:41;;;;;;;58.80;39.53;;;;;;;17.43;100.00;102250.88;5079406;28;20454;-73
2023/06/23 07:25:10;;;;;;;61.45;39.97;;;;;;;17.48;100.00;102251.63;5088460;28;20108;-73
2023/06/23 07:27:36;;;;;;;66.50;41.45;;;;;;;17.51;100.00;102256.81;5079859;28;20031;-73
2023/06/23 07:30:02;;;;;;;67.80;42.60;;;;;;;17.49;100.00;102240.16;5087675;28;20032;-73
2023/06/23 07:32:27;;;;;;;60.42;39.22;;;;;;;17.61;100.00;102252.13;5080128;28;20031;-72
2023/06/23 07:34:53;;;;;;;59.97;39.75;;;;;;;17.68;100.00;102256.28;5088637;28;20035;-72
2023/06/23 07:37:18;;;;;;;65.35;40.75;;;;;;;17.77;100.00;102251.63;5079865;28;20044;-72
2023/06/23 07:39:43;;;;;;;62.03;40.22;;;;;;;17.78;100.00;102248.06;5078252;28;20093;-73
2023/06/23 07:42:09;;;;;;;55.45;38.25;;;;;;;17.85;100.00;102255.78;5081479;28;20028;-73
2023/06/23 07:44:38;;;;;;;56.92;35.83;;;;;;;17.92;100.00;102260.84;5084653;28;20024;-73
2023/06/23 07:47:04;;;;;;;50.97;35.83;;;;;;;18.03;100.00;102263.13;5080567;28;20059;-72
2023/06/23 07:49:30;;;;;;;48.30;33.97;;;;;;;18.11;100.00;102254.97;5086984;28;20048;-72
2023/06/23 07:51:59;;;;;;;47.70;31.00;;;;;;;18.27;100.00;102266.75;5079346;28;20025;-72
2023/06/23 07:54:28;;;;;;;33.70;24.42;;;;;;;18.31;100.00;102254.31;5087216;28;20031;-73
2023/06/23 07:56:54;;;;;;;32.58;24.48;;;;;;;18.39;100.00;102263.69;5073615;28;20029;-79
2023/06/23 07:59:24;;;;;;;37.03;26.52;;;;;;;18.48;100.00;102262.53;5078344;28;20029;-72
2023/06/23 08:01:49;;;;;;;37.80;28.08;;;;;;;18.52;100.00;102260.66;5084137;28;20021;-72
2023/06/23 08:04:18;;;;;;;40.97;30.40;;;;;;;18.51;100.00;102267.72;5086367;28;20030;-72
2023/06/23 08:06:43;;;;;;;37.33;28.05;;;;;;;18.64;100.00;102262.88;5079917;28;20124;-73
2023/06/23 08:09:09;;;;;;;34.75;24.67;;;;;;;18.65;100.00;102260.16;5084867;28;20099;-72
2023/06/23 08:11:38;;;;;;;34.45;24.98;;;;;;;18.79;100.00;102265.00;5081732;28;20107;-72
2023/06/23 08:14:03;;;;;;;30.75;23.10;;;;;;;18.85;100.00;102263.94;5083568;28;20383;-73
2023/06/23 08:16:29;;;;;;;31.45;22.35;;;;;;;18.91;100.00;102267.22;5083195;28;20016;-72
2023/06/23 08:18:54;;;;;;;26.33;19.27;;;;;;;18.97;100.00;102266.13;5081767;28;20404;-72
2023/06/23 08:21:19;;;;;;;24.17;19.27;;;;;;;18.97;100.00;102275.84;5083727;28;20047;-72
2023/06/23 08:23:46;;;;;;;26.45;20.35;;;;;;;19.01;100.00;102270.38;5082275;28;20394;-72
2023/06/23 08:26:11;;;;;;;25.15;19.15;;;;;;;19.07;100.00;102272.81;5082899;28;20031;-72
2023/06/23 08:28:36;;;;;;;25.23;18.83;;;;;;;19.17;100.00;102274.19;5083011;28;20016;-72
2023/06/23 08:31:02;;;;;;;20.85;18.25;;;;;;;19.24;100.00;102280.13;5082722;28;20025;-72
2023/06/23 08:33:27;;;;;;;22.40;17.38;;;;;;;19.23;100.00;102274.88;5084065;28;20487;-72
2023/06/23 08:35:52;;;;;;;19.80;16.85;;;;;;;19.24;100.00;102271.34;5086746;28;20036;-72
2023/06/23 08:38:18;;;;;;;16.90;14.65;;;;;;;19.32;100.00;102270.09;5084187;28;20020;-72
2023/06/23 08:40:47;;;;;;;18.35;15.52;;;;;;;19.41;100.00;102285.63;5085799;28;20028;-72
2023/06/23 08:43:12;;;;;;;20.42;15.35;;;;;;;19.53;100.00;102283.47;5084824;28;20032;-72
2023/06/23 08:45:43;;;;;;;17.73;14.85;;;;;;;19.58;100.00;102289.41;5086349;28;20094;-72
2023/06/23 08:48:09;;;;;;;16.52;13.75;;;;;;;19.63;100.00;102287.47;5084547;28;20090;-71
2023/06/23 08:50:35;;;;;;;18.00;13.25;;;;;;;19.75;100.00;102292.31;5086493;28;20019;-72
2023/06/23 08:53:04;;;;;;;13.50;12.02;;;;;;;20.01;100.00;102295.69;5086718;28;20028;-71
2023/06/23 08:55:30;;;;;;;19.15;13.63;;;;;;;20.04;100.00;102298.22;5082781;28;20016;-72
2023/06/23 08:58:00;;;;;;;18.13;13.50;;;;;;;20.13;100.00;102297.88;5076108;28;20029;-72
2023/06/23 09:00:26;;;;;;;13.52;12.13;;;;;;;20.26;100.00;102301.72;5082455;28;20016;-72
2023/06/23 09:02:51;;;;;;;15.63;12.50;;;;;;;20.35;100.00;102309.31;5085447;28;20039;-72
2023/06/23 09:05:16;;;;;;;13.52;11.23;;;;;;;20.38;100.00;102304.81;5086211;28;20028;-72
2023/06/23 09:07:43;;;;;;;17.23;11.60;;;;;;;20.29;100.00;102308.69;5084581;28;20036;-73
2023/06/23 09:10:10;;;;;;;12.00;10.32;;;;;;;20.37;100.00;102311.03;5087525;28;20056;-72
2023/06/23 09:12:40;;;;;;;14.38;10.50;;;;;;;20.43;100.00;102313.41;5083233;28;20519;-72
2023/06/23 09:15:09;;;;;;;14.88;10.52;;;;;;;20.52;100.00;102310.44;5088753;28;20112;-72
2023/06/23 09:17:35;;;;;;;12.25;10.23;;;;;;;20.54;100.00;102317.38;5079210;28;20052;-72
2023/06/23 09:20:03;;;;;;;10.23;9.18;;;;;;;20.60;100.00;102316.28;5090544;28;20074;-72
2023/06/23 09:22:31;;;;;;;16.45;10.13;;;;;;;20.48;100.00;102319.41;5081568;28;20020;-72
2023/06/23 09:24:56;;;;;;;11.73;8.75;;;;;;;20.67;100.00;102319.53;5083745;28;20480;-72
2023/06/23 09:27:39;;;;;;;12.50;9.27;;;;;;;20.86;100.00;102328.38;5086056;28;20164;-72
2023/06/23 09:30:05;;;;;;;10.52;8.13;;;;;;;21.01;100.00;102324.22;5083601;28;20048;-72
2023/06/23 09:32:32;;;;;;;8.95;8.00;;;;;;;21.10;100.00;102328.28;5085035;28;20073;-72
2023/06/23 09:34:58;;;;;;;9.00;7.75;;;;;;;21.39;100.00;102337.63;5090840;28;20027;-72
2023/06/23 09:37:35;;;;;;;13.43;9.30;;;;;;;21.60;100.00;102346.38;5081352;28;20029;-73
2023/06/23 09:40:04;;;;;;;10.35;9.27;;;;;;;21.73;100.00;102343.06;5081205;28;20159;-72
2023/06/23 09:42:32;;;;;;;11.20;8.85;;;;;;;21.74;100.00;102351.88;5085216;28;20532;-73
2023/06/23 09:44:57;;;;;;;12.18;8.40;;;;;;;21.79;100.00;102344.59;5082483;28;20380;-72
2023/06/23 09:47:23;;;;;;;11.73;9.27;;;;;;;21.80;100.00;102338.34;5084708;28;20025;-72
2023/06/23 09:49:49;;;;;;;13.43;8.73;;;;;;;21.96;100.00;102343.78;5086639;28;20533;-72
2023/06/23 09:52:24;;;;;;;9.55;8.13;;;;;;;21.96;100.00;102349.09;5082046;28;20096;-72
2023/06/23 09:54:49;;;;;;;8.38;7.00;;;;;;;21.99;100.00;102348.94;5087222;28;20472;-72
2023/06/23 09:57:17;;;;;;;7.70;6.85;;;;;;;22.21;100.00;102340.84;5081212;28;20074;-72
2023/06/23 09:59:44;;;;;;;9.23;7.20;;;;;;;22.38;100.00;102342.66;5074779;28;20028;-72
2023/06/23 10:02:20;;;;;;;9.13;7.78;;;;;;;22.75;100.00;102346.13;5082173;28;20084;-72
2023/06/23 10:04:48;;;;;;;11.63;8.40;;;;;;;22.97;96.98;102340.63;5073639;28;20423;-72
2023/06/23 10:07:25;;;;;;;9.57;7.00;;;;;;;23.10;98.30;102331.06;5082063;28;20070;-72
2023/06/23 10:09:59;;;;;;;8.18;6.53;;;;;;;23.06;99.14;102338.34;5073980;28;20492;-72
2023/06/23 10:12:26;;;;;;;7.75;6.38;;;;;;;23.02;100.00;102331.47;5080757;28;20032;-72
2023/06/23 10:14:57;;;;;;;8.77;6.15;;;;;;;22.69;100.00;102336.66;5089566;28;20028;-72
2023/06/23 10:17:23;;;;;;;8.95;6.30;;;;;;;22.84;100.00;102335.03;5081396;28;20046;-72
2023/06/23 10:19:50;;;;;;;8.10;6.10;;;;;;;23.18;100.00;102334.16;5088779;28;20458;-72
2023/06/23 10:22:18;;;;;;;8.25;5.93;;;;;;;23.22;100.00;102338.38;5081521;28;20052;-72
2023/06/23 10:24:49;;;;;;;9.20;5.93;;;;;;;22.90;100.00;102340.03;5089449;28;20028;-72
2023/06/23 10:27:21;;;;;;;9.95;7.20;;;;;;;22.78;98.91;102335.34;5080911;28;20372;-72
2023/06/23 10:29:52;;;;;;;10.48;7.75;;;;;;;22.72;93.12;102347.16;5089007;28;20460;-72
2023/06/23 10:32:22;;;;;;;9.18;7.13;;;;;;;23.06;90.72;102338.34;5075595;28;20029;-72
2023/06/23 10:34:50;;;;;;;10.23;7.13;;;;;;;22.86;86.00;102342.00;5089021;28;20058;-72
2023/06/23 10:37:18;;;;;;;10.43;7.53;;;;;;;22.81;92.88;102340.50;5081693;28;20036;-72
2023/06/23 10:39:50;;;;;;;9.23;7.40;;;;;;;23.17;90.11;102336.91;5078113;28;20106;-72
2023/06/23 10:42:15;;;;;;;8.25;6.45;;;;;;;23.60;92.60;102336.28;5083378;28;20032;-72
2023/06/23 10:44:42;;;;;;;7.90;5.93;;;;;;;23.96;93.14;102348.53;5085533;28;20044;-72
2023/06/23 10:47:08;;;;;;;8.60;5.80;;;;;;;24.33;78.74;102346.47;5080697;28;20035;-72
2023/06/23 10:49:34;;;;;;;7.93;6.18;;;;;;;24.57;71.96;102346.00;5087368;28;20465;-72
2023/06/23 10:52:00;;;;;;;8.27;6.97;;;;;;;24.91;73.85;102345.69;5080941;28;20068;-72
2023/06/23 10:54:27;;;;;;;7.63;6.25;;;;;;;25.20;82.58;102356.44;5087498;28;20039;-72
2023/06/23 10:56:53;;;;;;;10.02;6.05;;;;;;;25.30;70.30;102343.41;5080592;28;20020;-72
2023/06/23 10:59:22;;;;;;;7.95;5.72;;;;;;;25.30;70.85;102359.41;5076022;28;20023;-72
2023/06/23 11:01:59;;;;;;;6.05;4.97;;;;;;;25.50;81.99;102350.16;5080104;28;20067;-72
2023/06/23 11:04:30;;;;;;;7.28;5.72;;;;;;;25.51;74.80;102346.56;5088058;28;20039;-72
2023/06/23 11:07:24;;;;;;;7.63;6.82;;;;;;;25.74;69.25;102356.63;5080987;28;20024;-72
2023/06/23 11:10:02;;;;;;;9.07;5.53;;;;;;;25.89;72.65;102353.00;5083604;28;20036;-72
2023/06/23 11:12:30;;;;;;;7.43;5.65;;;;;;;25.96;65.83;102356.13;5077045;28;20024;-72